Data for 07/02/2005

Time Sea-Level Adjusted Pressure Absolute Pressure Temperature Relative Humidity Dew Point   
(mb) (inHg) (mb) (inHg) (C) (F) (%) (C) (F)
00:05 1015 29.97 844 24.92 16.6 62 57 8.1 46.6
00:10 1015 29.97 844 24.92 16.5 61.6 57 8 46.3
00:15 1015 29.97 844 24.92 16.3 61.3 59 8.4 47.1
00:20 1015 29.97 844 24.92 16.1 61.1 59 8.1 46.6
00:25 1015 29.97 844 24.92 16 60.9 58 8 46.3
00:30 1015 29.97 844 24.92 15.9 60.7 58 7.7 45.8
00:35 1015 29.97 844 24.92 16.1 60.9 57 7.6 45.7
00:40 1015 29.97 844 24.92 16.5 61.6 56 7.6 45.8
00:45 1015 29.97 844 24.92 16.7 62.1 53 7.2 45
00:50 1015 29.97 844 24.92 16.7 62 55 7.6 45.6
00:55 1015 29.97 844 24.92 16.2 61.2 56 7.6 45.8
01:00 1015 29.97 844 24.92 15.8 60.5 61 8.3 46.9
01:05 1015 29.97 844 24.92 15.6 60 58 7.5 45.4
01:10 1015 29.97 844 24.92 15.5 59.8 60 7.9 46.2
01:15 1015 29.97 844 24.92 15.1 59.2 60 7.4 45.4
01:20 1015 29.97 844 24.92 14.9 58.9 61 7.7 45.8
01:25 1015 29.97 844 24.92 14.7 58.5 62 7.6 45.6
01:30 1015 29.97 844 24.92 14.6 58.2 64 7.8 46
01:35 1015 29.97 844 24.92 14.3 57.7 63 7.3 45.1
01:40 1015 29.97 844 24.92 14.4 57.9 62 7.1 44.9
01:45 1015 29.97 844 24.92 14.5 58 61 7.2 45
01:50 1015 29.97 844 24.92 14.6 58.3 61 7.2 45
01:55 1015 29.97 844 24.92 14.4 57.9 63 7.5 45.5
02:00 1015 29.97 844 24.92 14.1 57.4 63 7.3 45.2
02:05 1015 29.97 844 24.92 14.1 57.3 63 7.3 45.1
02:10 1015 29.97 844 24.92 13.9 57.1 63 7 44.6
02:15 1015 29.97 844 24.92 14.2 57.6 61 6.9 44.4
02:20 1015 29.97 844 24.92 14.4 57.8 59 6.6 43.9
02:25 1015 29.97 844 24.92 14.6 58.2 60 6.9 44.3
02:30 1015 29.97 844 24.92 14.5 58.2 59 6.8 44.2
02:35 1015 29.97 844 24.92 14.4 57.9 61 6.9 44.5
02:40 1015 29.97 844 24.92 14.3 57.8 59 6.6 43.9
02:45 1015 29.97 844 24.92 14.3 57.8 60 6.8 44.3
02:50 1015 29.97 844 24.92 14.3 57.7 61 6.8 44.3
02:55 1015 29.97 844 24.92 14.2 57.6 61 6.9 44.4
03:00 1015 29.97 844 24.92 13.9 57 62 6.8 44.2
03:05 1015 29.97 844 24.92 13.7 56.7 62 6.7 44.1
03:10 1015 29.97 844 24.92 13.6 56.4 63 6.7 44.1
03:15 1015 29.97 844 24.92 13.5 56.3 65 7.2 44.9
03:20 1015 29.97 844 24.92 13.6 56.5 62 6.4 43.6
03:25 1015 29.97 844 24.92 13.7 56.6 62 6.6 43.9
03:30 1015 29.97 844 24.92 13.5 56.4 62 6.4 43.6
03:35 1015 29.97 844 24.92 13.5 56.4 62 6.6 43.8
03:40 1015 29.97 844 24.92 13.3 55.9 64 6.8 44.2
03:45 1015 29.97 844 24.92 13.3 56 63 6.4 43.6
03:50 1015 29.97 844 24.92 13.2 55.7 64 6.6 43.8
03:55 1015 29.97 844 24.92 13 55.4 64 6.4 43.6
04:00 1015 29.97 844 24.92 13.1 55.6 63 6.3 43.3
04:05 1015 29.97 844 24.92 13.4 56.1 62 6.2 43.2
04:10 1014 29.94 844 24.92 13.3 56 62 6.4 43.4
04:15 1014 29.94 844 24.92 13.1 55.6 63 6.3 43.4
04:20 1014 29.94 844 24.92 13.1 55.5 63 6.3 43.4
04:25 1014 29.94 844 24.92 13 55.4 64 6.4 43.4
04:30 1014 29.94 844 24.92 13.1 55.5 63 6.3 43.3
04:35 1014 29.94 844 24.92 13.1 55.6 62 6.1 43
04:40 1014 29.94 843 24.89 13.3 55.9 61 6.1 42.9
04:45 1014 29.94 843 24.89 13.3 56 62 6.2 43.2
04:50 1014 29.94 843 24.89 13.1 55.6 62 6.2 43.1
04:55 1014 29.94 843 24.89 13 55.5 62 6 42.8
05:00 1014 29.94 843 24.89 13 55.4 61 5.8 42.5
05:05 1014 29.94 843 24.89 12.8 55.1 63 5.9 42.7
05:10 1014 29.94 843 24.89 12.5 54.4 64 5.8 42.5
05:15 1014 29.94 843 24.89 12.3 54.2 64 5.8 42.4
05:20 1014 29.94 843 24.89 12.3 54.2 64 5.7 42.2
05:25 1014 29.94 843 24.89 12.4 54.2 65 5.9 42.7
05:30 1014 29.94 843 24.89 12.2 54 63 5.5 42
05:35 1014 29.94 843 24.89 12.3 54.1 64 5.7 42.2
05:40 1014 29.94 843 24.89 12.2 54 64 5.8 42.4
05:45 1014 29.94 843 24.89 12.3 54.1 65 5.9 42.7
05:50 1014 29.94 843 24.89 12.3 54.2 65 5.9 42.6
05:55 1014 29.94 843 24.89 12.7 54.8 63 5.9 42.6
06:00 1014 29.94 843 24.89 12.6 54.7 63 5.7 42.3
06:05 1014 29.94 843 24.89 12.7 54.9 63 6 42.7
06:10 1014 29.94 843 24.89 12.5 54.4 65 6 42.9
06:15 1014 29.94 843 24.89 12.2 53.9 66 6.1 42.9
06:20 1014 29.94 843 24.89 12.3 54.1 65 6 42.7
06:25 1014 29.94 843 24.89 12.6 54.7 63 5.8 42.4
06:30 1014 29.94 843 24.89 13 55.4 62 5.8 42.5
06:35 1014 29.94 843 24.89 13.3 55.9 63 6.5 43.7
06:40 1014 29.94 843 24.89 13.1 55.6 65 6.6 44
06:45 1014 29.94 843 24.89 13.1 55.6 62 5.9 42.7
06:50 1014 29.94 843 24.89 13.5 56.2 65 7 44.5
06:55 1014 29.94 843 24.89 12.9 55.2 66 6.8 44.2
07:00 1014 29.94 843 24.89 12.5 54.4 67 6.6 43.9
07:05 1014 29.94 843 24.89 12.4 54.4 70 7.1 44.8
07:10 1014 29.94 843 24.89 12.7 54.8 66 6.5 43.7
07:15 1014 29.94 843 24.89 12.8 55 67 6.8 44.2
07:20 1014 29.94 843 24.89 13.2 55.7 66 6.9 44.5
07:25 1014 29.94 843 24.89 13.7 56.7 64 7.1 44.8
07:30 1014 29.94 843 24.89 14.2 57.6 66 8.1 46.6
07:35 1014 29.94 843 24.89 14.3 57.8 63 7.5 45.5
07:40 1014 29.94 843 24.89 14.2 57.6 64 7.6 45.7
07:45 1014 29.94 843 24.89 14.5 58.1 63 7.5 45.5
07:50 1014 29.94 843 24.89 14.9 58.8 63 8 46.3
07:55 1014 29.94 843 24.89 15.5 59.8 58 7.3 45.1
08:00 1014 29.94 843 24.89 16.2 61.1 56 7.5 45.5
08:05 1014 29.94 843 24.89 16.6 61.9 54 7.5 45.4
08:10 1014 29.94 843 24.89 17.2 63 53 7.6 45.7
08:15 1014 29.94 843 24.89 18 64.4 51 7.9 46.2
08:20 1014 29.94 843 24.89 18.5 65.4 50 8 46.4
08:25 1014 29.94 843 24.89 17.9 64.3 50 7.6 45.6
08:30 1014 29.94 843 24.89 18.1 64.5 49 7.2 44.9
08:35 1014 29.94 843 24.89 18.5 65.2 48 7.2 45
08:40 1014 29.94 843 24.89 18.7 65.6 48 7.6 45.7
08:45 1014 29.94 843 24.89 18.5 65.2 44 6 42.8
08:50 1014 29.94 843 24.89 18.2 64.7 47 6.9 44.4
08:55 1014 29.94 843 24.89 18.1 64.6 44 5.8 42.5
09:00 1014 29.94 843 24.89 18.6 65.5 44 6.3 43.4
09:05 1014 29.94 843 24.89 18.4 65 46 6.7 44.1
09:10 1014 29.94 843 24.89 18.3 64.9 46 6.6 43.8
09:15 1014 29.94 843 24.89 18.2 64.8 45 6.4 43.4
09:20 1014 29.94 843 24.89 18.5 65.3 43 5.9 42.7
09:25 1014 29.94 843 24.89 18.4 65 44 6 42.8
09:30 1014 29.94 843 24.89 18.3 64.9 44 5.8 42.5
09:35 1014 29.94 843 24.89 19 66.3 42 6.1 43
09:40 1014 29.94 843 24.89 18.7 65.6 44 6.4 43.5
09:45 1014 29.94 843 24.89 18.4 65.2 43 5.9 42.6
09:50 1014 29.94 843 24.89 19 66.2 43 6.4 43.5
09:55 1014 29.94 843 24.89 19.3 66.7 42 6.3 43.4
10:00 1014 29.94 843 24.89 18.9 65.9 44 6.4 43.5
10:05 1014 29.94 843 24.89 19.2 66.6 45 7 44.6
10:10 1014 29.94 843 24.89 19.8 67.6 45 7.5 45.5
10:15 1014 29.94 843 24.89 19.8 67.6 45 7.8 46
10:20 1013 29.91 843 24.89 19.9 67.9 45 7.7 45.8
10:25 1013 29.91 843 24.89 20.2 68.4 45 8.1 46.6
10:30 1013 29.91 843 24.89 19.4 66.9 47 7.9 46.2
10:35 1013 29.91 843 24.89 20 67.9 45 7.8 46.1
10:40 1013 29.91 843 24.89 20.5 69 46 8.7 47.7
10:45 1013 29.91 843 24.89 20.5 69 44 8 46.4
10:50 1013 29.91 843 24.89 20.7 69.3 44 8.1 46.5
10:55 1013 29.91 842 24.86 20.5 68.9 46 8.5 47.3
11:00 1013 29.91 842 24.86 20.9 69.7 43 8.1 46.6
11:05 1013 29.91 842 24.86 21.4 70.5 42 8.1 46.6
11:10 1013 29.91 842 24.86 21.2 70.2 41 7.6 45.6
11:15 1013 29.91 842 24.86 21.4 70.4 41 7.7 45.9
11:20 1013 29.91 842 24.86 21.8 71.3 40 7.8 46
11:25 1013 29.91 842 24.86 21.7 71.1 40 7.6 45.7
11:30 1013 29.91 842 24.86 21.9 71.4 36 6.5 43.7
11:35 1013 29.91 842 24.86 22.2 71.9 36 6.5 43.7
11:40 1013 29.91 842 24.86 21.9 71.4 37 6.6 43.8
11:45 1013 29.91 842 24.86 21.8 71.3 36 6.1 43
11:50 1013 29.91 842 24.86 21.8 71.2 35 5.7 42.2
11:55 1013 29.91 842 24.86 22 71.7 34 5.6 42.1
12:00 1013 29.91 842 24.86 22.4 72.2 34 6.1 43
12:05 1013 29.91 842 24.86 22.6 72.7 33 5.8 42.4
12:10 1013 29.91 842 24.86 22.5 72.6 33 5.8 42.4
12:15 1013 29.91 842 24.86 22.6 72.7 32 5.1 41.2
12:20 1013 29.91 842 24.86 22.8 73 33 6 42.8
12:25 1013 29.91 842 24.86 23.3 74 32 5.7 42.2
12:30 1013 29.91 842 24.86 23.5 74.3 32 6.1 43
12:35 1013 29.91 842 24.86 23.4 74.2 32 5.9 42.7
12:40 1013 29.91 842 24.86 23.2 73.8 32 6 42.8
12:45 1013 29.91 842 24.86 23.3 73.9 32 6 42.7
12:50 1013 29.91 842 24.86 23.6 74.5 31 5.7 42.2
12:55 1012 29.88 842 24.86 23.8 74.9 32 6.4 43.6
13:00 1012 29.88 842 24.86 23.8 74.9 32 6.5 43.6
13:05 1012 29.88 842 24.86 23.3 73.9 32 6 42.7
13:10 1012 29.88 842 24.86 23.5 74.2 32 5.8 42.5
13:15 1012 29.88 841 24.83 23.6 74.5 31 5.8 42.4
13:20 1012 29.88 841 24.83 24 75.2 31 6.1 43
13:25 1012 29.88 841 24.83 24.1 75.4 31 6.3 43.4
13:30 1012 29.88 841 24.83 24.3 75.8 29 5.3 41.5
13:35 1012 29.88 841 24.83 24.2 75.5 31 6.4 43.4
13:40 1012 29.88 841 24.83 24.3 75.8 30 6.1 43
13:45 1012 29.88 841 24.83 24.3 75.8 30 5.9 42.6
13:50 1012 29.88 841 24.83 24.8 76.6 29 5.8 42.4
13:55 1012 29.88 841 24.83 24.2 75.5 31 6.4 43.6
14:00 1012 29.88 841 24.83 24.3 75.7 31 6.2 43.1
14:05 1012 29.88 841 24.83 23.8 74.8 31 6.1 42.9
14:10 1012 29.88 841 24.83 24 75.1 31 5.9 42.5
14:15 1012 29.88 841 24.83 24.6 76.2 31 6.6 43.9
14:20 1012 29.88 841 24.83 24.7 76.5 31 6.7 44.1
14:25 1012 29.88 841 24.83 24.9 76.8 28 5.6 42.1
14:30 1012 29.88 841 24.83 25 77 31 6.8 44.2
14:35 1012 29.88 841 24.83 23.5 74.3 34 6.9 44.5
14:40 1012 29.88 841 24.83 23.8 74.8 31 5.9 42.6
14:45 1012 29.88 841 24.83 24.3 75.7 29 5.5 41.9
14:50 1012 29.88 841 24.83 24.2 75.6 29 5.5 41.9
14:55 1012 29.88 841 24.83 24.3 75.7 29 5.3 41.6
15:00 1012 29.88 841 24.83 24.9 76.8 29 5.8 42.5
15:05 1012 29.88 841 24.83 24.7 76.4 30 6.1 42.9
15:10 1012 29.88 841 24.83 24.5 76.1 30 6.1 43.1
15:15 1012 29.88 841 24.83 23.9 75 30 5.3 41.6
15:20 1012 29.88 841 24.83 24.6 76.3 29 5.8 42.5
15:25 1012 29.88 841 24.83 24.9 76.9 30 6.2 43.2
15:30 1012 29.88 841 24.83 25 77.1 29 5.9 42.7
15:35 1012 29.88 841 24.83 24.9 76.7 30 6.2 43.2
15:40 1012 29.88 841 24.83 24.8 76.7 31 6.6 43.8
15:45 1012 29.88 841 24.83 24.5 76.1 30 6.1 42.9
15:50 1012 29.88 841 24.83 24.2 75.6 31 6.4 43.5
15:55 1012 29.88 841 24.83 24.1 75.4 32 6.7 44.1
16:00 1012 29.88 841 24.83 23.9 74.9 32 6.3 43.3
16:05 1012 29.88 841 24.83 23.7 74.7 32 6.3 43.3
16:10 1012 29.88 841 24.83 23.9 75 31 5.9 42.7
16:15 1012 29.88 841 24.83 24.4 75.9 30 6.1 42.9
16:20 1012 29.88 841 24.83 24.7 76.4 30 6.2 43.1
16:25 1012 29.88 841 24.83 24.5 76.1 31 6.4 43.5
16:30 1012 29.88 841 24.83 24.7 76.4 30 6.4 43.5
16:35 1012 29.88 841 24.83 24.9 76.8 30 6.2 43.2
16:40 1012 29.88 841 24.83 24.9 76.8 30 6.4 43.6
16:45 1012 29.88 841 24.83 24.5 76.1 30 6.1 43
16:50 1012 29.88 841 24.83 25 76.9 29 5.7 42.3
16:55 1012 29.88 841 24.83 24.8 76.7 30 6.3 43.4
17:00 1012 29.88 841 24.83 24.9 76.9 28 5.7 42.2
17:05 1012 29.88 841 24.83 25.2 77.4 28 5.6 42.1
17:10 1012 29.88 841 24.83 25 77 29 6.2 43.1
17:15 1012 29.88 841 24.83 25.1 77.2 28 5.3 41.6
17:20 1012 29.88 841 24.83 25 77.1 28 5.7 42.3
17:25 1012 29.88 841 24.83 25 77.1 27 4.9 40.7
17:30 1012 29.88 841 24.83 25.1 77.2 27 4.9 40.9
17:35 1012 29.88 841 24.83 24.3 75.7 27 4.6 40.2
17:40 1012 29.88 841 24.83 24 75.2 27 4.2 39.5
17:45 1012 29.88 841 24.83 24.4 75.8 26 3.8 38.9
17:50 1012 29.88 841 24.83 24.4 75.8 26 3.9 39.1
17:55 1012 29.88 841 24.83 24.2 75.5 25 3.4 38.1
18:00 1012 29.88 841 24.83 24.2 75.5 26 3.6 38.4
18:05 1012 29.88 841 24.83 24.4 75.9 27 4.3 39.8
18:10 1012 29.88 841 24.83 24.5 76.1 25 3.3 38
18:15 1012 29.88 841 24.83 24.3 75.8 25 3.4 38.1
18:20 1012 29.88 841 24.83 24 75.1 24 2.6 36.7
18:25 1012 29.88 841 24.83 24.1 75.3 25 3.2 37.7
18:30 1012 29.88 841 24.83 23.8 74.8 26 3.2 37.7
18:35 1012 29.88 841 24.83 23.4 74.1 27 3.6 38.5
18:40 1012 29.88 841 24.83 23 73.3 27 3.3 37.9
18:45 1012 29.88 841 24.83 22.9 73.2 28 3.6 38.5
18:50 1012 29.88 841 24.83 22.9 73.3 27 3.4 38.1
18:55 1012 29.88 841 24.83 23.1 73.6 28 4 39.2
19:00 1012 29.88 841 24.83 22.8 73.1 29 4.2 39.6
19:05 1012 29.88 841 24.83 22.5 72.5 29 3.9 39.1
19:10 1012 29.88 841 24.83 22.5 72.5 30 4.3 39.8
19:15 1012 29.88 841 24.83 22.4 72.2 29 3.6 38.4
19:20 1012 29.88 841 24.83 22.8 73 29 4.3 39.7
19:25 1012 29.88 841 24.83 23.2 73.7 29 4.2 39.5
19:30 1012 29.88 841 24.83 22.6 72.7 31 4.9 40.9
19:35 1012 29.88 841 24.83 22.1 71.8 32 4.9 40.8
19:40 1012 29.88 841 24.83 21.8 71.2 33 4.9 40.9
19:45 1012 29.88 842 24.86 21.5 70.6 33 4.7 40.4
19:50 1012 29.88 842 24.86 21.3 70.3 32 4.3 39.8
19:55 1012 29.88 842 24.86 21.2 70.2 32 4.2 39.5
20:00 1012 29.88 842 24.86 21.2 70.1 34 4.7 40.5
20:05 1012 29.88 842 24.86 21 69.8 34 4.5 40.2
20:10 1012 29.88 842 24.86 21 69.7 34 4.6 40.3
20:15 1013 29.91 842 24.86 21 69.7 35 4.9 40.8
20:20 1013 29.91 842 24.86 20.9 69.7 32 3.9 39
20:25 1013 29.91 842 24.86 20.9 69.7 31 3.5 38.3
20:30 1013 29.91 842 24.86 21 69.8 24 0 32
20:35 1013 29.91 842 24.86 21.2 70.2 23 -0.3 31.4
20:40 1013 29.91 842 24.86 21.2 70.2 23 -0.3 31.5
20:45 1013 29.91 842 24.86 21.1 70 25 0.7 33.2
20:50 1013 29.91 842 24.86 20.9 69.6 24 -0.2 31.7
20:55 1013 29.91 842 24.86 20.6 69.2 23 -0.9 30.4
21:00 1013 29.91 843 24.89 20.4 68.8 22 -2 28.4
21:05 1014 29.94 843 24.89 20.3 68.6 21 -2.5 27.6
21:10 1014 29.94 843 24.89 20.2 68.4 22 -1.7 28.9
21:15 1014 29.94 843 24.89 20.1 68.1 24 -1 30.2
21:20 1014 29.94 843 24.89 19.7 67.4 27 0.2 32.4
21:25 1014 29.94 843 24.89 19.3 66.8 28 0.6 33.1
21:30 1014 29.94 843 24.89 19 66.2 29 0.9 33.7
21:35 1014 29.94 843 24.89 18.9 65.9 29 0.8 33.5
21:40 1014 29.94 843 24.89 18.7 65.6 30 1 33.8
21:45 1014 29.94 844 24.92 18.6 65.5 29 0.6 33.1
21:50 1014 29.94 844 24.92 18.5 65.2 30 0.6 33.1
21:55 1015 29.97 844 24.92 18.4 65.1 30 0.6 33.1
22:00 1015 29.97 844 24.92 18.2 64.8 31 0.9 33.6
22:05 1015 29.97 844 24.92 18.1 64.6 31 1 33.8
22:10 1015 29.97 844 24.92 17.9 64.1 32 1 33.7
22:15 1015 29.97 844 24.92 17.7 63.9 31 0.4 32.7
22:20 1015 29.97 844 24.92 17.6 63.7 31 0.4 32.7
22:25 1015 29.97 844 24.92 17.6 63.6 31 0.3 32.5
22:30 1015 29.97 845 24.95 17.6 63.6 30 -0.1 31.9
22:35 1015 29.97 845 24.95 17.5 63.5 30 -0 32
22:40 1015 29.97 845 24.95 17.3 63.1 31 -0 32
22:45 1016 30 845 24.95 17.1 62.7 32 0.2 32.3
22:50 1016 30 845 24.95 16.7 62.1 32 0.2 32.4
22:55 1016 30 845 24.95 16.5 61.7 33 0.3 32.5
23:00 1016 30 845 24.95 16.3 61.3 34 0.4 32.7
23:05 1016 30 845 24.95 16.1 61 34 0.4 32.7
23:10 1016 30 845 24.95 16 60.8 34 0.2 32.3
23:15 1016 30 845 24.95 15.9 60.7 35 0.5 32.9
23:20 1016 30 845 24.95 15.8 60.4 35 0.5 32.8
23:25 1016 30 845 24.95 15.5 59.9 36 0.6 33.1
23:30 1016 30 846 24.98 15.4 59.7 37 0.7 33.2
23:35 1016 30 846 24.98 15.1 59.2 37 0.8 33.4
23:40 1017 30.03 846 24.98 15 59 38 0.9 33.6
23:45 1017 30.03 846 24.98 14.9 58.7 38 0.6 33.2
23:50 1017 30.03 846 24.98 14.7 58.5 38 0.6 33.2
23:55 1017 30.03 846 24.98 14.6 58.2 39 1 33.7
24:00 1017 30.03 846 24.98 14.4 58 40 1.1 34.1